createdAt,value
2022-10-11T00:00:08.427Z,66.46
2022-10-11T00:05:08.070Z,66.44
2022-10-11T00:10:07.821Z,66.47
2022-10-11T00:15:08.509Z,66.47
2022-10-11T00:20:08.238Z,66.47
2022-10-11T00:25:10.626Z,66.47
2022-10-11T00:30:08.309Z,66.47
2022-10-11T00:35:08.011Z,66.47
2022-10-11T00:40:07.729Z,66.5
2022-10-11T00:45:08.410Z,66.5
2022-10-11T00:50:08.109Z,66.49
2022-10-11T00:55:07.858Z,66.51
2022-10-11T01:00:08.554Z,66.53
2022-10-11T01:05:28.056Z,66.54
2022-10-11T01:10:07.708Z,66.55
2022-10-11T01:15:08.426Z,66.57
2022-10-11T01:20:10.330Z,66.57
2022-10-11T01:25:08.025Z,66.58
2022-10-11T01:30:07.771Z,66.58
2022-10-11T01:35:08.504Z,66.58
2022-10-11T01:40:18.193Z,66.59
2022-10-11T01:45:07.901Z,66.58
2022-10-11T01:50:08.605Z,66.59
2022-10-11T01:55:09.954Z,66.61
2022-10-11T02:00:08.156Z,66.6
2022-10-11T02:05:07.848Z,66.6
2022-10-11T02:10:08.579Z,66.61
2022-10-11T02:15:08.289Z,66.61
2022-10-11T02:20:08.009Z,66.62
2022-10-11T02:25:07.710Z,66.62
2022-10-11T02:30:08.411Z,66.62
2022-10-11T02:35:08.108Z,66.63
2022-10-11T02:40:07.849Z,66.63
2022-10-11T02:45:08.543Z,66.63
2022-10-11T02:50:08.385Z,66.63
2022-10-11T02:55:08.076Z,66.64
2022-10-11T03:00:07.795Z,66.64
2022-10-11T03:05:08.518Z,66.66
2022-10-11T03:10:08.223Z,66.65
2022-10-11T03:15:07.922Z,66.69
2022-10-11T03:20:08.628Z,66.69
2022-10-11T03:25:08.338Z,66.69
2022-10-11T03:30:08.040Z,66.69
2022-10-11T03:35:07.767Z,66.71
2022-10-11T03:40:08.472Z,66.71
2022-10-11T03:45:08.222Z,66.73
2022-10-11T03:50:07.943Z,66.72
2022-10-11T03:55:08.611Z,66.72
2022-10-11T04:00:08.319Z,66.75
2022-10-11T04:05:02.158Z,66.75
2022-10-11T04:10:01.983Z,66.77
2022-10-11T04:15:01.928Z,66.78
2022-10-11T04:20:02.883Z,66.79
2022-10-11T04:25:02.799Z,66.8
2022-10-11T04:30:02.517Z,66.8
2022-10-11T04:35:04.535Z,66.8
2022-10-11T04:40:02.919Z,66.8
2022-10-11T04:45:02.809Z,66.81
2022-10-11T04:50:02.795Z,66.8
2022-10-11T04:55:02.636Z,66.81
2022-10-11T05:00:02.427Z,66.84
2022-10-11T05:05:02.277Z,66.85
2022-10-11T05:10:02.089Z,66.87
2022-10-11T05:15:01.896Z,66.85
2022-10-11T05:20:02.646Z,66.85
2022-10-11T05:25:02.551Z,66.85
2022-10-11T05:30:02.513Z,66.85
2022-10-11T05:35:02.338Z,66.85
2022-10-11T05:40:02.273Z,66.86
2022-10-11T05:45:02.099Z,66.88
2022-10-11T05:50:01.948Z,66.91
2022-10-11T05:55:01.758Z,66.91
2022-10-11T06:00:02.613Z,66.91
2022-10-11T06:05:02.450Z,66.92
2022-10-11T06:10:02.288Z,66.94
2022-10-11T06:15:02.181Z,66.94
2022-10-11T06:20:02.022Z,66.96
2022-10-11T06:25:01.859Z,66.96
2022-10-11T06:30:02.598Z,66.95
2022-10-11T06:35:02.338Z,66.97
2022-10-11T06:40:02.184Z,66.98
2022-10-11T06:45:01.961Z,67.0
2022-10-11T06:50:01.713Z,67.01
2022-10-11T06:55:02.779Z,67.01
2022-10-11T07:00:02.670Z,67.02
2022-10-11T07:05:02.631Z,67.04
2022-10-11T07:10:02.561Z,67.05
2022-10-11T07:15:02.489Z,67.04
2022-10-11T07:20:02.446Z,67.07
2022-10-11T07:25:02.333Z,67.06
2022-10-11T07:30:02.271Z,67.06
2022-10-11T07:35:02.108Z,67.06
2022-10-11T07:40:02.018Z,67.06
2022-10-11T07:45:01.754Z,67.04
2022-10-11T07:50:02.610Z,67.06
2022-10-11T07:55:02.445Z,67.02
2022-10-11T08:00:02.172Z,67.0
2022-10-11T08:05:02.018Z,66.97
2022-10-11T08:10:01.981Z,66.91
2022-10-11T08:15:01.767Z,66.86
2022-10-11T08:20:02.622Z,66.82
2022-10-11T08:25:02.457Z,66.79
2022-10-11T08:30:02.241Z,66.72
2022-10-11T08:35:02.159Z,66.65
2022-10-11T08:40:02.102Z,66.62
2022-10-11T08:45:11.041Z,66.55
2022-10-11T08:50:02.560Z,66.5
2022-10-11T08:55:12.379Z,66.46
2022-10-11T09:00:02.528Z,66.39
2022-10-11T09:05:02.462Z,66.35
2022-10-11T09:10:02.301Z,66.31
2022-10-11T09:15:02.101Z,66.27
2022-10-11T09:20:02.190Z,66.21
2022-10-11T09:25:12.029Z,66.18
2022-10-11T09:30:01.978Z,66.13
2022-10-11T09:35:01.827Z,66.11
2022-10-11T09:40:03.006Z,66.04
2022-10-11T09:45:01.991Z,66.03
2022-10-11T09:50:01.899Z,65.96
2022-10-11T09:55:02.938Z,65.94
2022-10-11T10:00:02.682Z,65.91
2022-10-11T10:05:02.636Z,65.86
2022-10-11T10:10:02.541Z,65.84
2022-10-11T10:15:02.485Z,65.78
2022-10-11T10:20:02.276Z,65.73
2022-10-11T10:25:02.133Z,65.68
2022-10-11T10:30:01.968Z,65.65
2022-10-11T10:35:11.743Z,65.59
2022-10-11T10:40:02.703Z,65.55
2022-10-11T10:45:02.525Z,65.48
2022-10-11T10:50:02.492Z,65.42
2022-10-11T10:55:02.442Z,65.36
2022-10-11T11:00:02.268Z,65.33
2022-10-11T11:05:02.099Z,65.25
2022-10-11T11:10:01.922Z,65.2
2022-10-11T11:15:02.861Z,65.15
2022-10-11T11:20:02.683Z,65.13
2022-10-11T11:25:02.500Z,65.03
2022-10-11T11:30:02.264Z,64.99
2022-10-11T11:35:02.067Z,64.92
2022-10-11T11:40:01.876Z,64.88
2022-10-11T11:45:02.671Z,64.79
2022-10-11T11:50:02.461Z,64.75
2022-10-11T11:55:04.188Z,64.73
2022-10-11T12:00:02.141Z,64.68
2022-10-11T12:05:01.979Z,64.63
2022-10-11T12:10:01.773Z,64.59
2022-10-11T12:15:02.533Z,64.5
2022-10-11T12:20:02.358Z,64.44
2022-10-11T12:25:02.187Z,64.39
2022-10-11T12:30:02.167Z,64.32
2022-10-11T12:35:02.061Z,64.32
2022-10-11T12:40:01.972Z,64.26
2022-10-11T12:45:01.805Z,64.22
2022-10-11T12:50:02.661Z,64.16
2022-10-11T12:55:12.578Z,64.15
2022-10-11T13:00:02.297Z,64.14
2022-10-11T13:05:02.050Z,64.13
2022-10-11T13:10:01.888Z,64.15
2022-10-11T13:15:02.640Z,64.15
2022-10-11T13:20:02.484Z,64.18
2022-10-11T13:25:02.281Z,64.16
2022-10-11T13:30:02.045Z,64.13
2022-10-11T13:35:01.861Z,64.12
2022-10-11T13:40:02.577Z,64.12
2022-10-11T13:45:02.318Z,64.09
2022-10-11T13:50:02.177Z,64.07
2022-10-11T13:55:01.971Z,64.1
2022-10-11T14:00:01.781Z,64.12
2022-10-11T14:05:02.575Z,64.12
2022-10-11T14:10:02.425Z,64.14
2022-10-11T14:15:02.212Z,64.16
2022-10-11T14:20:12.090Z,64.15
2022-10-11T14:25:01.988Z,64.16
2022-10-11T14:30:25.163Z,64.19
2022-10-11T14:35:02.133Z,64.18
2022-10-11T14:40:02.044Z,64.2
2022-10-11T14:45:01.901Z,64.19
2022-10-11T14:50:02.701Z,64.19
2022-10-11T14:55:02.576Z,64.17
2022-10-11T15:00:02.508Z,64.18
2022-10-11T15:05:02.468Z,64.13
2022-10-11T15:10:02.561Z,64.1
2022-10-11T15:15:02.517Z,64.13
2022-10-11T15:20:02.423Z,64.1
2022-10-11T15:25:02.272Z,64.06
2022-10-11T15:30:02.218Z,64.04
2022-10-11T15:35:02.129Z,63.98
2022-10-11T15:40:01.924Z,64.01
2022-10-11T15:45:02.754Z,64.04
2022-10-11T15:50:02.585Z,64.03
2022-10-11T15:55:02.363Z,64.01
2022-10-11T16:00:02.226Z,63.99
2022-10-11T16:05:02.062Z,63.96
2022-10-11T16:10:01.843Z,63.93
2022-10-11T16:15:02.613Z,63.92
2022-10-11T16:20:02.566Z,63.92
2022-10-11T16:25:02.358Z,63.93
2022-10-11T16:30:02.224Z,63.94
2022-10-11T16:35:02.036Z,63.94
2022-10-11T16:40:01.898Z,63.95
2022-10-11T16:45:02.720Z,64.01
2022-10-11T16:50:02.543Z,64.03
2022-10-11T16:55:02.481Z,64.04
2022-10-11T17:00:02.271Z,64.1
2022-10-11T17:05:02.054Z,64.23
2022-10-11T17:10:01.857Z,64.31
2022-10-11T17:15:02.628Z,64.45
2022-10-11T17:20:02.432Z,64.49
2022-10-11T17:25:02.249Z,64.55
2022-10-11T17:30:02.053Z,64.58
2022-10-11T17:35:01.830Z,64.63
2022-10-11T17:40:02.590Z,64.67
2022-10-11T17:45:02.509Z,64.68
2022-10-11T17:50:02.452Z,64.74
2022-10-11T17:55:02.363Z,64.75
2022-10-11T18:00:02.476Z,64.79
2022-10-11T18:05:02.322Z,64.83
2022-10-11T18:10:02.280Z,64.83
2022-10-11T18:15:02.179Z,64.89
2022-10-11T18:20:02.025Z,64.91
2022-10-11T18:25:01.891Z,64.93
2022-10-11T18:30:02.719Z,64.96
2022-10-11T18:35:02.557Z,65.01
2022-10-11T18:40:02.441Z,65.02
2022-10-11T18:45:02.489Z,65.04
2022-10-11T18:50:02.392Z,65.08
2022-10-11T18:55:02.137Z,65.11
2022-10-11T19:00:11.795Z,65.11
2022-10-11T19:05:02.531Z,65.15
2022-10-11T19:10:04.933Z,65.18
2022-10-11T19:15:02.868Z,65.22
2022-10-11T19:20:02.747Z,65.25
2022-10-11T19:25:02.592Z,65.27
2022-10-11T19:30:02.364Z,65.27
2022-10-11T19:35:02.203Z,65.31
2022-10-11T19:40:02.059Z,65.32
2022-10-11T19:45:01.954Z,65.36
2022-10-11T19:50:01.804Z,65.38
2022-10-11T19:55:02.764Z,65.41
2022-10-11T20:00:02.561Z,65.42
2022-10-11T20:05:02.698Z,65.46
2022-10-11T20:10:02.458Z,65.5
2022-10-11T20:15:02.285Z,65.5
2022-10-11T20:20:02.130Z,65.51
2022-10-11T20:25:02.010Z,65.52
2022-10-11T20:30:02.051Z,65.53
2022-10-11T20:35:21.677Z,65.59
2022-10-11T20:40:08.403Z,65.58
2022-10-11T20:45:08.129Z,65.63
2022-10-11T20:50:07.801Z,65.64
2022-10-11T20:55:08.475Z,65.66
2022-10-11T21:00:08.543Z,65.64
2022-10-11T21:05:08.265Z,65.71
2022-10-11T21:10:07.974Z,65.71
2022-10-11T21:15:07.693Z,65.73
2022-10-11T21:20:08.393Z,65.74
2022-10-11T21:25:08.107Z,65.76
2022-10-11T21:30:07.855Z,65.79
2022-10-11T21:35:08.569Z,65.78
2022-10-11T21:40:08.292Z,65.79
2022-10-11T21:45:07.976Z,65.83
2022-10-11T21:50:07.712Z,65.86
2022-10-11T21:55:08.445Z,65.9
2022-10-11T22:00:08.267Z,65.89
2022-10-11T22:05:07.950Z,65.91
2022-10-11T22:10:08.661Z,65.92
2022-10-11T22:15:08.309Z,65.92
2022-10-11T22:20:08.055Z,65.92
2022-10-11T22:25:07.797Z,65.98
2022-10-11T22:30:08.543Z,65.97
2022-10-11T22:35:08.251Z,65.99
2022-10-11T22:40:07.976Z,65.99
2022-10-11T22:45:07.694Z,66.01
2022-10-11T22:50:08.427Z,66.02
2022-10-11T22:55:08.110Z,66.04
2022-10-11T23:01:01.145Z,66.08
2022-10-11T23:05:07.841Z,66.07
2022-10-11T23:10:08.258Z,66.09
2022-10-11T23:15:07.944Z,66.1
2022-10-11T23:20:07.654Z,66.1
2022-10-11T23:25:08.362Z,66.12
2022-10-11T23:30:08.089Z,66.13
2022-10-11T23:35:07.833Z,66.17
2022-10-11T23:40:08.563Z,66.17
2022-10-11T23:45:08.281Z,66.15
2022-10-11T23:50:08.002Z,66.2
2022-10-11T23:55:07.696Z,66.21
